Time;durP1;ratioP1;P1;durP2;ratioP2;P2;SDS_P1;SDS_P2;PMS_P1;PMS_P2;Temp;Humidity;BMP_temperature;BMP_pressure;BME280_temperature;BME280_humidity;BME280_pressure;Samples;Min_cycle;Max_cycle;Signal;HPM_P1;HPM_P2
2022/06/01 00:01:10;;;;;;;6.55;4.88;;;;;;;15.93;47.02;99502.66;5052927;28;20064;-64
2022/06/01 00:03:40;;;;;;;8.15;4.85;;;;;;;15.92;47.18;99506.25;5053078;28;20049;-61
2022/06/01 00:06:08;;;;;;;6.60;4.70;;;;;;;15.93;46.68;99507.09;5053129;28;20126;-61
2022/06/01 00:08:35;;;;;;;6.80;4.65;;;;;;;15.92;46.43;99508.09;5053002;28;20049;-60
2022/06/01 00:11:02;;;;;;;7.70;4.78;;;;;;;15.90;46.71;99508.22;5052715;28;20750;-60
2022/06/01 00:13:29;;;;;;;7.50;4.95;;;;;;;15.89;46.80;99504.69;5051568;28;20405;-60
2022/06/01 00:15:56;;;;;;;6.20;4.78;;;;;;;15.88;46.95;99504.81;5051369;28;20045;-61
2022/06/01 00:18:24;;;;;;;6.80;5.03;;;;;;;15.86;47.06;99507.59;5052651;28;20472;-59
2022/06/01 00:20:52;;;;;;;11.25;5.65;;;;;;;15.85;47.11;99510.41;5052438;28;20099;-60
2022/06/01 00:23:20;;;;;;;6.10;5.32;;;;;;;15.83;47.53;99507.03;5067993;28;20057;-60
2022/06/01 00:25:46;;;;;;;9.15;5.28;;;;;;;15.82;47.46;99505.34;5051487;28;20059;-61
2022/06/01 00:28:13;;;;;;;5.45;4.40;;;;;;;15.81;47.15;99508.97;5052399;28;20041;-61
2022/06/01 00:30:40;;;;;;;7.10;5.68;;;;;;;15.80;47.46;99499.31;5052503;28;20048;-62
2022/06/01 00:33:07;;;;;;;6.95;5.32;;;;;;;15.77;47.21;99501.25;5052313;28;20130;-61
2022/06/01 00:35:34;;;;;;;5.95;4.97;;;;;;;15.76;47.26;99496.94;5052462;28;20406;-61
2022/06/01 00:38:00;;;;;;;6.88;5.30;;;;;;;15.75;47.27;99494.41;5052151;28;20575;-62
2022/06/01 00:40:29;;;;;;;8.35;4.78;;;;;;;15.73;47.62;99497.19;5052322;28;20432;-59
2022/06/01 00:42:58;;;;;;;4.80;4.40;;;;;;;15.73;47.45;99498.97;5067662;28;20493;-60
2022/06/01 00:45:28;;;;;;;6.97;5.00;;;;;;;15.72;47.78;99495.50;5052167;28;20060;-60
2022/06/01 00:47:55;;;;;;;8.10;5.40;;;;;;;15.73;47.83;99504.28;5067629;28;20057;-59
2022/06/01 00:50:29;;;;;;;6.78;4.78;;;;;;;15.72;48.51;99510.56;5050939;28;20056;-60
2022/06/01 00:53:07;;;;;;;6.60;4.50;;;;;;;15.70;48.55;99499.25;5051867;28;20135;-61
2022/06/01 00:55:37;;;;;;;5.15;4.47;;;;;;;15.72;48.40;99498.16;5052018;28;20045;-62
2022/06/01 00:58:10;;;;;;;5.57;4.78;;;;;;;15.72;48.27;99506.13;5050634;28;20118;-60
2022/06/01 01:00:40;;;;;;;6.40;5.05;;;;;;;15.72;48.54;99511.44;5067338;28;20052;-60
2022/06/01 01:03:10;;;;;;;8.02;5.10;;;;;;;15.72;48.12;99499.97;5052055;28;20049;-60
2022/06/01 01:05:40;;;;;;;6.25;5.65;;;;;;;15.71;48.33;99504.44;5050777;28;20684;-60
2022/06/01 01:08:07;;;;;;;7.22;5.22;;;;;;;15.69;48.05;99498.41;5050544;28;20052;-62
2022/06/01 01:10:34;;;;;;;7.32;5.70;;;;;;;15.66;47.92;99498.66;5051386;28;20048;-60
2022/06/01 01:13:05;;;;;;;7.28;5.97;;;;;;;15.63;48.22;99498.94;5051689;28;20528;-60
2022/06/01 01:15:43;;;;;;;6.50;5.70;;;;;;;15.60;49.00;99500.03;5051803;28;20550;-61
2022/06/01 01:18:13;;;;;;;5.75;5.10;;;;;;;15.60;48.32;99499.16;5050395;28;20528;-60
2022/06/01 01:20:54;;;;;;;6.43;5.70;;;;;;;15.56;48.65;99503.91;5066537;28;20045;-60
2022/06/01 01:23:33;;;;;;;6.72;5.78;;;;;;;15.55;48.63;99509.31;5051724;28;20382;-60
2022/06/01 01:26:00;;;;;;;7.20;5.65;;;;;;;15.55;48.14;99498.72;5066838;28;20064;-60
2022/06/01 01:28:28;;;;;;;6.75;5.85;;;;;;;15.54;48.34;99497.00;5051424;28;20060;-61
2022/06/01 01:31:01;;;;;;;6.90;5.70;;;;;;;15.50;48.77;99497.28;5051182;28;20053;-62
2022/06/01 01:33:29;;;;;;;8.35;5.88;;;;;;;15.50;48.46;99501.72;5049920;28;20056;-59
2022/06/01 01:36:04;;;;;;;6.57;5.60;;;;;;;15.45;48.67;99496.81;5051077;28;20048;-60
2022/06/01 01:38:53;;;;;;;5.97;4.70;;;;;;;15.40;48.52;99498.97;5051407;28;20088;-59
2022/06/01 01:41:32;;;;;;;6.05;4.78;;;;;;;15.40;49.04;99495.50;5049943;28;20057;-62
2022/06/01 01:44:07;;;;;;;6.60;5.70;;;;;;;15.37;48.81;99496.59;5050097;28;20045;-59
2022/06/01 01:46:34;;;;;;;8.07;6.05;;;;;;;15.38;48.40;99490.31;5050114;28;20045;-62
2022/06/01 01:49:02;;;;;;;6.53;5.82;;;;;;;15.36;48.59;99486.94;5051178;28;20048;-61
2022/06/01 01:51:31;;;;;;;7.30;5.40;;;;;;;15.35;48.83;99494.06;5049560;28;20053;-61
2022/06/01 01:54:01;;;;;;;6.85;5.53;;;;;;;15.36;48.78;99494.91;5066167;28;20479;-59
2022/06/01 01:56:46;;;;;;;7.80;5.85;;;;;;;15.37;49.05;99491.28;5050709;28;20049;-60
2022/06/01 01:59:31;;;;;;;6.25;5.65;;;;;;;15.35;49.29;99495.88;5050750;28;20053;-61
2022/06/01 02:02:12;;;;;;;6.43;5.78;;;;;;;15.36;49.23;99495.75;5050665;28;20056;-60
2022/06/01 02:08:01;;;;;;;6.82;5.45;;;;;;;15.34;49.11;99492.41;5050797;28;20059;-58
2022/06/01 02:13:16;;;;;;;7.72;5.45;;;;;;;15.33;48.78;99497.81;5050753;28;20056;-60
2022/06/01 02:15:47;;;;;;;7.60;6.10;;;;;;;15.29;49.31;99493.72;5049628;28;20767;-64
2022/06/01 02:18:20;;;;;;;6.93;5.63;;;;;;;15.25;49.42;99498.41;5066097;28;20049;-60
2022/06/01 02:20:57;;;;;;;7.38;6.60;;;;;;;15.21;49.72;99499.63;5065834;28;20523;-59
2022/06/01 02:23:23;;;;;;;8.05;6.10;;;;;;;15.20;49.34;99498.81;5050520;28;20064;-59
2022/06/01 02:25:53;;;;;;;8.30;6.68;;;;;;;15.18;49.36;99499.91;5050432;28;20638;-60
2022/06/01 02:28:20;;;;;;;7.90;6.32;;;;;;;15.16;49.63;99499.16;5050834;28;20060;-60
2022/06/01 02:30:47;;;;;;;7.50;6.32;;;;;;;15.14;49.59;99496.63;5049085;28;20045;-60
2022/06/01 02:33:26;;;;;;;8.65;6.15;;;;;;;15.09;50.09;99496.16;5049078;28;20071;-60
2022/06/01 02:35:58;;;;;;;8.68;6.55;;;;;;;15.09;49.70;99497.03;5049122;28;20057;-62
2022/06/01 02:38:30;;;;;;;6.35;5.72;;;;;;;15.07;50.04;99496.28;5050571;28;20563;-61
2022/06/01 02:41:00;;;;;;;7.55;6.45;;;;;;;15.06;50.27;99496.44;5050386;28;20048;-59
2022/06/01 02:43:27;;;;;;;8.25;7.28;;;;;;;15.07;49.86;99495.47;5050649;28;20063;-59
2022/06/01 02:45:54;;;;;;;6.15;5.55;;;;;;;15.04;49.83;99491.25;5050295;28;20089;-62
2022/06/01 02:48:20;;;;;;;8.55;6.50;;;;;;;15.02;49.95;99497.66;5050249;28;20546;-60
2022/06/01 02:50:47;;;;;;;7.85;6.60;;;;;;;15.00;50.33;99499.56;5050130;28;20493;-62
2022/06/01 02:53:14;;;;;;;8.60;7.05;;;;;;;14.97;49.98;99512.09;5050357;28;20107;-63
2022/06/01 02:55:40;;;;;;;10.00;7.20;;;;;;;14.94;50.11;99509.69;5050886;28;20106;-61
2022/06/01 02:58:07;;;;;;;7.30;6.60;;;;;;;14.91;50.04;99512.56;5050192;28;20118;-61
2022/06/01 03:00:37;;;;;;;8.18;6.88;;;;;;;14.87;50.59;99511.13;5049997;28;20053;-62
2022/06/01 03:03:06;;;;;;;8.05;7.03;;;;;;;14.84;50.41;99522.00;5050122;28;20053;-63
2022/06/01 03:05:35;;;;;;;7.43;6.18;;;;;;;14.80;50.77;99513.44;5048855;28;20048;-62
2022/06/01 03:08:03;;;;;;;7.30;6.55;;;;;;;14.75;50.64;99510.28;5048834;28;20060;-62
2022/06/01 03:10:30;;;;;;;9.25;6.75;;;;;;;14.72;50.55;99508.72;5049816;28;20056;-61
2022/06/01 03:12:57;;;;;;;6.57;5.82;;;;;;;14.71;50.68;99507.03;5050193;28;20060;-60
2022/06/01 03:15:25;;;;;;;7.20;6.47;;;;;;;14.69;50.87;99508.94;5051147;28;20107;-61
2022/06/01 03:17:53;;;;;;;7.93;7.13;;;;;;;14.67;50.80;99513.53;5069485;28;20052;-61
2022/06/01 03:20:22;;;;;;;9.70;7.53;;;;;;;14.65;50.97;99512.78;5053990;28;20056;-64
2022/06/01 03:22:55;;;;;;;7.07;6.43;;;;;;;14.64;50.97;99511.13;5052714;28;20451;-61
2022/06/01 03:25:23;;;;;;;7.13;6.43;;;;;;;14.62;50.95;99507.75;5053724;28;20048;-62
2022/06/01 03:27:57;;;;;;;9.25;7.78;;;;;;;14.58;51.55;99511.59;5069316;28;20088;-60
2022/06/01 03:30:23;;;;;;;8.57;7.40;;;;;;;14.58;50.89;99512.44;5053695;28;20088;-60
2022/06/01 03:32:51;;;;;;;8.00;7.20;;;;;;;14.56;51.20;99513.50;5053780;28;20091;-63
2022/06/01 03:35:20;;;;;;;8.88;7.35;;;;;;;14.51;51.36;99516.53;5053572;28;20049;-61
2022/06/01 03:37:47;;;;;;;9.82;8.38;;;;;;;14.48;51.18;99503.53;5052191;28;20060;-60
2022/06/01 03:40:19;;;;;;;8.77;7.47;;;;;;;14.43;51.99;99509.16;5053212;28;20055;-60
2022/06/01 03:42:46;;;;;;;9.05;8.10;;;;;;;14.41;51.49;99513.75;5053753;28;20060;-61
2022/06/01 03:47:59;;;;;;;9.50;8.50;;;;;;;14.34;51.68;99509.88;5053343;28;20060;-61
2022/06/01 03:50:27;;;;;;;11.40;9.55;;;;;;;14.31;52.01;99508.31;5053227;28;20053;-60
2022/06/01 03:52:55;;;;;;;12.18;9.82;;;;;;;14.28;51.98;99508.53;5053063;28;20053;-61
2022/06/01 03:55:22;;;;;;;11.57;9.85;;;;;;;14.28;52.08;99510.38;5052082;28;20052;-62
2022/06/01 03:57:49;;;;;;;11.45;9.38;;;;;;;14.25;52.10;99506.16;5051646;28;20049;-62
2022/06/01 04:00:22;;;;;;;11.55;10.23;;;;;;;14.22;52.91;99516.97;5051717;28;20060;-61
2022/06/01 04:02:49;;;;;;;10.70;9.07;;;;;;;14.24;52.32;99512.38;5051786;28;20580;-60
2022/06/01 04:05:16;;;;;;;11.32;9.80;;;;;;;14.24;52.47;99519.50;5052923;28;20053;-64
2022/06/01 04:07:43;;;;;;;12.45;9.32;;;;;;;14.27;52.61;99516.59;5068197;28;20065;-61
2022/06/01 04:10:11;;;;;;;11.10;9.60;;;;;;;14.28;52.62;99515.66;5052866;28;20052;-60
2022/06/01 04:12:38;;;;;;;11.35;9.45;;;;;;;14.29;52.78;99515.53;5052849;28;20557;-62
2022/06/01 04:15:06;;;;;;;10.75;9.20;;;;;;;14.33;53.03;99505.56;5052781;28;20053;-61
2022/06/01 04:17:33;;;;;;;8.95;8.15;;;;;;;14.37;52.89;99508.78;5051509;28;20122;-60
2022/06/01 04:19:59;;;;;;;9.70;8.57;;;;;;;14.41;53.05;99510.25;5052590;28;20077;-62
2022/06/01 04:22:26;;;;;;;10.48;9.38;;;;;;;14.46;53.30;99511.59;5052663;28;20444;-60
2022/06/01 04:24:53;;;;;;;10.07;8.77;;;;;;;14.51;53.27;99513.88;5052773;28;20071;-62
2022/06/01 04:27:19;;;;;;;14.48;9.40;;;;;;;14.55;53.32;99509.19;5051848;28;20598;-63
2022/06/01 04:29:46;;;;;;;10.43;8.60;;;;;;;14.58;53.24;99515.06;5052678;28;20060;-60
2022/06/01 04:32:16;;;;;;;11.75;9.13;;;;;;;14.60;53.57;99525.56;5052340;28;20052;-61
2022/06/01 04:34:42;;;;;;;9.57;8.57;;;;;;;14.63;53.11;99524.47;5051444;28;20065;-62
2022/06/01 04:37:09;;;;;;;10.05;9.05;;;;;;;14.64;53.00;99526.16;5052366;28;20076;-60
2022/06/01 04:39:35;;;;;;;10.77;9.68;;;;;;;14.65;52.90;99517.25;5052507;28;20543;-60
2022/06/01 04:42:02;;;;;;;10.75;9.63;;;;;;;14.66;53.14;99527.72;5052157;28;20049;-60
2022/06/01 04:44:29;;;;;;;10.55;9.32;;;;;;;14.67;53.21;99525.91;5052218;28;20440;-60
2022/06/01 04:46:55;;;;;;;12.35;10.32;;;;;;;14.69;53.17;99524.00;5052240;28;20504;-62
2022/06/01 04:49:22;;;;;;;10.80;9.70;;;;;;;14.70;53.02;99531.00;5052181;28;20502;-61
2022/06/01 04:51:49;;;;;;;12.50;10.10;;;;;;;14.71;53.16;99530.00;5051979;28;20099;-61
2022/06/01 04:54:16;;;;;;;10.90;9.80;;;;;;;14.71;53.04;99530.88;5052245;28;20497;-61
2022/06/01 04:56:42;;;;;;;11.40;10.20;;;;;;;14.71;53.31;99530.88;5052053;28;20049;-61
2022/06/01 04:59:09;;;;;;;12.15;10.95;;;;;;;14.71;53.23;99533.53;5052161;28;20057;-61
2022/06/01 05:01:36;;;;;;;11.05;9.95;;;;;;;14.72;53.31;99539.66;5051868;28;20075;-63
2022/06/01 05:04:02;;;;;;;12.35;11.15;;;;;;;14.72;53.19;99535.19;5052049;28;20045;-61
2022/06/01 05:06:29;;;;;;;11.30;10.15;;;;;;;14.72;53.30;99535.19;5050689;28;20061;-63
2022/06/01 05:08:56;;;;;;;11.90;10.70;;;;;;;14.71;53.41;99530.88;5051912;28;20132;-62
2022/06/01 05:11:22;;;;;;;11.88;10.02;;;;;;;14.71;53.62;99532.66;5066850;28;20417;-63
2022/06/01 05:13:49;;;;;;;13.75;10.45;;;;;;;14.72;53.49;99529.03;5051746;28;20401;-61
2022/06/01 05:16:16;;;;;;;11.80;10.55;;;;;;;14.71;53.52;99528.22;5051880;28;20064;-61
2022/06/01 05:18:42;;;;;;;11.80;10.60;;;;;;;14.73;53.53;99531.59;5051768;28;20065;-61
2022/06/01 05:21:09;;;;;;;11.95;10.75;;;;;;;14.74;53.67;99529.78;5066513;28;20477;-61
2022/06/01 05:23:35;;;;;;;12.10;10.57;;;;;;;14.77;53.98;99534.84;5051542;28;20057;-62
2022/06/01 05:26:02;;;;;;;11.82;10.63;;;;;;;14.79;53.77;99540.03;5051491;28;20061;-62
2022/06/01 05:28:32;;;;;;;12.00;10.63;;;;;;;14.81;53.97;99546.91;5051490;28;20052;-61
2022/06/01 05:31:05;;;;;;;12.30;10.95;;;;;;;14.83;54.53;99541.47;5049785;28;20498;-64
2022/06/01 05:33:33;;;;;;;11.65;10.25;;;;;;;14.89;53.79;99542.81;5050189;28;20052;-61
2022/06/01 05:35:59;;;;;;;14.68;10.93;;;;;;;14.92;53.95;99539.94;5051286;28;20060;-62
2022/06/01 05:38:26;;;;;;;13.05;11.73;;;;;;;14.95;53.77;99545.81;5050649;28;20420;-63
2022/06/01 05:40:53;;;;;;;13.18;11.68;;;;;;;14.98;53.99;99544.72;5049637;28;20060;-63
2022/06/01 05:43:21;;;;;;;13.02;11.48;;;;;;;15.01;53.92;99547.16;5049791;28;20049;-61
2022/06/01 05:45:48;;;;;;;12.35;10.63;;;;;;;15.06;53.92;99546.81;5049974;28;20115;-62
2022/06/01 05:48:18;;;;;;;12.25;11.00;;;;;;;15.08;54.33;99552.81;5050167;28;20045;-61
2022/06/01 05:50:44;;;;;;;11.70;10.50;;;;;;;15.12;54.02;99559.56;5050947;28;20053;-62
2022/06/01 05:53:11;;;;;;;12.27;10.95;;;;;;;15.15;53.97;99554.00;5051012;28;20052;-63
2022/06/01 05:55:39;;;;;;;12.88;10.77;;;;;;;15.20;54.07;99556.28;5050854;28;20060;-62
2022/06/01 05:58:14;;;;;;;13.88;11.30;;;;;;;15.20;54.61;99554.50;5049875;28;20045;-61
2022/06/01 06:00:42;;;;;;;12.50;11.20;;;;;;;15.28;53.84;99561.00;5051072;28;20075;-61
2022/06/01 06:03:09;;;;;;;13.35;12.00;;;;;;;15.32;53.81;99554.44;5049795;28;20063;-62
2022/06/01 06:08:21;;;;;;;12.05;10.70;;;;;;;15.38;53.79;99561.94;5050861;28;20456;-61
2022/06/01 06:10:48;;;;;;;12.93;10.68;;;;;;;15.40;53.71;99559.97;5049487;28;20052;-64
2022/06/01 06:13:16;;;;;;;12.63;11.30;;;;;;;15.45;53.50;99562.28;5049598;28;20155;-62
2022/06/01 06:15:43;;;;;;;10.15;9.20;;;;;;;15.48;53.44;99562.03;5049596;28;20049;-63
2022/06/01 06:18:13;;;;;;;11.52;10.35;;;;;;;15.50;54.10;99560.94;5050671;28;20048;-61
2022/06/01 06:20:44;;;;;;;12.02;10.82;;;;;;;15.55;53.96;99567.69;5049167;28;20057;-62
2022/06/01 06:23:12;;;;;;;12.25;10.27;;;;;;;15.60;53.50;99566.34;5049311;28;20060;-61
2022/06/01 06:25:40;;;;;;;11.90;10.30;;;;;;;15.63;53.37;99566.06;5050700;28;20099;-61
2022/06/01 06:28:07;;;;;;;11.77;10.68;;;;;;;15.67;53.40;99566.69;5050685;28;20053;-62
2022/06/01 06:30:35;;;;;;;11.93;10.73;;;;;;;15.72;53.73;99583.06;5049135;28;20060;-61
2022/06/01 06:33:01;;;;;;;10.77;9.68;;;;;;;15.77;53.48;99572.06;5049148;28;20057;-61
2022/06/01 06:35:28;;;;;;;11.50;10.35;;;;;;;15.81;53.37;99577.97;5050285;28;20102;-61
2022/06/01 06:37:54;;;;;;;9.77;8.90;;;;;;;15.80;53.17;99577.13;5050288;28;20511;-62
2022/06/01 06:40:21;;;;;;;9.30;8.40;;;;;;;15.80;52.68;99574.47;5050511;28;20473;-62
2022/06/01 06:42:48;;;;;;;9.35;8.43;;;;;;;15.79;53.01;99574.59;5049092;28;20094;-62
2022/06/01 06:45:15;;;;;;;8.43;7.30;;;;;;;15.78;52.97;99573.78;5050345;28;20064;-63
2022/06/01 06:47:44;;;;;;;9.38;8.00;;;;;;;15.78;52.82;99571.13;5065671;28;20053;-63
2022/06/01 06:50:13;;;;;;;9.45;7.70;;;;;;;15.77;52.89;99578.22;5049665;28;20473;-62
2022/06/01 06:52:59;;;;;;;10.85;8.65;;;;;;;15.81;52.80;99576.16;5067025;28;20084;-62
2022/06/01 06:55:26;;;;;;;10.07;8.02;;;;;;;15.83;53.25;99576.03;5054461;28;20053;-63
2022/06/01 06:57:53;;;;;;;9.00;7.32;;;;;;;15.85;52.76;99574.09;5054256;28;20056;-66
2022/06/01 07:00:19;;;;;;;8.48;7.57;;;;;;;15.88;52.99;99573.84;5053994;28;20401;-63
2022/06/01 07:02:46;;;;;;;8.80;7.78;;;;;;;15.92;53.02;99574.44;5054030;28;20049;-63
2022/06/01 07:06:08;;;;;;;8.93;8.07;;;;;;;15.95;53.06;99582.16;5054359;28;20119;-63
2022/06/01 07:08:02;;;;;;;7.70;6.82;;;;;;;16.00;53.04;99587.97;5053960;28;20052;-65
2022/06/01 07:10:28;;;;;;;8.05;6.65;;;;;;;16.06;52.52;99583.94;5052656;28;20412;-62
2022/06/01 07:12:55;;;;;;;7.13;6.25;;;;;;;16.12;52.57;99596.72;5053968;28;20491;-63
2022/06/01 07:15:21;;;;;;;7.32;6.63;;;;;;;16.15;52.19;99591.16;5054072;28;20056;-63
2022/06/01 07:17:48;;;;;;;7.68;6.75;;;;;;;16.19;52.91;99592.59;5054015;28;20469;-63
2022/06/01 07:20:14;;;;;;;8.50;7.70;;;;;;;16.23;52.77;99601.13;5053390;28;20057;-62
2022/06/01 07:22:41;;;;;;;9.20;7.90;;;;;;;16.27;53.08;99591.94;5053795;28;20422;-65
2022/06/01 07:25:08;;;;;;;8.23;7.43;;;;;;;16.33;53.17;99601.22;5053780;28;20540;-63
2022/06/01 07:27:36;;;;;;;9.40;8.20;;;;;;;16.38;53.01;99596.34;5053702;28;20127;-64
2022/06/01 07:30:10;;;;;;;9.75;8.57;;;;;;;16.46;52.88;99603.66;5053433;28;20049;-63
2022/06/01 07:32:37;;;;;;;10.68;9.25;;;;;;;16.48;52.72;99605.22;5053609;28;20060;-62
2022/06/01 07:35:06;;;;;;;11.77;9.52;;;;;;;16.53;52.52;99604.84;5053172;28;20057;-63
2022/06/01 07:43:06;;;;;;;14.10;10.48;;;;;;;16.58;52.49;99612.41;5053420;28;20057;-64
2022/06/01 07:45:35;;;;;;;10.65;9.07;;;;;;;16.59;52.82;99609.63;5053463;28;20122;-62
2022/06/01 07:48:03;;;;;;;12.35;9.20;;;;;;;16.60;52.82;99603.31;5053333;28;20049;-65
2022/06/01 07:50:51;;;;;;;11.13;9.50;;;;;;;16.66;52.81;99608.13;5052966;28;20087;-63
2022/06/01 07:53:18;;;;;;;11.30;10.00;;;;;;;16.71;52.73;99606.91;5053260;28;20056;-62
2022/06/01 07:55:44;;;;;;;11.13;10.02;;;;;;;16.74;52.73;99607.47;5053254;28;20064;-63
2022/06/01 07:58:11;;;;;;;11.65;10.40;;;;;;;16.79;52.70;99610.56;5068951;28;20413;-64
2022/06/01 08:00:38;;;;;;;12.43;11.13;;;;;;;16.85;52.55;99613.69;5053020;28;20049;-62
2022/06/01 08:03:13;;;;;;;11.73;10.52;;;;;;;16.88;52.48;99616.06;5051839;28;20057;-64
2022/06/01 08:05:40;;;;;;;12.80;11.48;;;;;;;16.96;52.45;99610.13;5051996;28;20052;-63
2022/06/01 08:08:07;;;;;;;13.20;11.82;;;;;;;17.03;52.77;99616.56;5052923;28;20058;-63
2022/06/01 08:10:36;;;;;;;16.13;12.43;;;;;;;17.11;52.51;99614.13;5052834;28;20049;-63
2022/06/01 08:13:07;;;;;;;13.90;12.23;;;;;;;17.20;52.54;99617.81;5051640;28;20081;-63
2022/06/01 08:15:40;;;;;;;12.55;11.20;;;;;;;17.28;52.44;99617.13;5052797;28;20455;-63
2022/06/01 08:18:08;;;;;;;;;;;;;;;17.35;52.34;99620.09;5053349;28;20084;-63
2022/06/01 08:20:35;;;;;;;12.75;11.32;;;;;;;17.50;52.09;99616.09;5052732;28;19927;-63
2022/06/01 08:23:02;;;;;;;12.35;11.05;;;;;;;17.56;52.00;99618.19;5052683;28;20049;-63
2022/06/01 08:25:29;;;;;;;13.50;11.90;;;;;;;17.63;52.42;99623.81;5051517;28;20431;-63
2022/06/01 08:27:57;;;;;;;14.60;13.07;;;;;;;17.71;51.85;99615.97;5051404;28;20056;-63
2022/06/01 08:30:25;;;;;;;15.18;12.30;;;;;;;17.78;51.43;99629.56;5051368;28;20059;-63
2022/06/01 08:32:54;;;;;;;12.50;11.20;;;;;;;17.83;51.44;99627.34;5051216;28;20551;-63
2022/06/01 08:35:25;;;;;;;13.13;11.77;;;;;;;17.86;51.14;99623.56;5052573;28;20060;-62
2022/06/01 08:37:52;;;;;;;11.73;10.52;;;;;;;17.90;51.20;99624.97;5051207;28;20053;-62
2022/06/01 08:40:23;;;;;;;14.38;10.43;;;;;;;17.94;51.31;99617.56;5050913;28;20060;-62
2022/06/01 08:42:59;;;;;;;11.55;10.40;;;;;;;17.97;51.50;99609.25;5052672;28;20106;-63
2022/06/01 08:45:27;;;;;;;11.18;9.95;;;;;;;18.04;51.03;99605.06;5052356;28;20084;-63
2022/06/01 08:47:59;;;;;;;;;;;;;;;18.08;50.65;99600.31;5052684;28;20048;-62
2022/06/01 08:50:28;;;;;;;8.98;8.10;;;;;;;18.17;50.27;99610.13;5050374;28;19921;-62
2022/06/01 08:52:58;;;;;;;9.13;8.32;;;;;;;18.18;49.74;99609.19;5050619;28;20053;-64
2022/06/01 08:55:30;;;;;;;11.48;8.82;;;;;;;18.18;49.58;99598.53;5050515;28;20513;-64
2022/06/01 08:58:16;;;;;;;9.88;8.75;;;;;;;18.17;49.42;99601.31;5051756;28;20041;-62
2022/06/01 09:00:50;;;;;;;8.85;7.95;;;;;;;18.20;49.97;99599.22;5051731;28;20064;-64
2022/06/01 09:03:29;;;;;;;9.13;8.25;;;;;;;18.26;50.13;99600.47;5051882;28;20053;-63
2022/06/01 09:06:13;;;;;;;9.77;6.53;;;;;;;18.38;49.21;99605.66;5050589;28;20045;-62
2022/06/01 09:09:19;;;;;;;9.00;6.65;;;;;;;18.50;49.57;99599.16;5051850;28;20057;-63
2022/06/01 09:11:46;;;;;;;7.75;6.43;;;;;;;18.64;48.50;99597.88;5028787;28;20045;-63
2022/06/01 09:14:32;;;;;;;8.68;6.93;;;;;;;18.66;48.18;99614.59;5047432;28;20057;-63
2022/06/01 09:16:59;;;;;;;6.35;5.60;;;;;;;18.72;48.58;99602.47;5051891;28;20053;-64
2022/06/01 09:22:41;;;;;;;6.20;5.55;;;;;;;18.74;48.51;99600.53;5040880;28;20095;-63
2022/06/01 09:25:16;;;;;;;6.35;5.57;;;;;;;18.77;48.93;99605.56;5051525;28;20060;-62
2022/06/01 09:27:51;;;;;;;5.90;5.38;;;;;;;18.79;47.24;99603.59;5066914;28;20542;-62
2022/06/01 09:30:20;;;;;;;6.57;5.93;;;;;;;18.83;47.43;99606.81;5051183;28;20045;-61
2022/06/01 09:33:13;;;;;;;4.70;4.30;;;;;;;18.77;47.47;99612.72;5051269;28;20056;-62
2022/06/01 09:35:44;;;;;;;6.30;5.65;;;;;;;18.79;46.80;99616.06;5050176;28;20055;-62
2022/06/01 09:38:18;;;;;;;5.95;5.30;;;;;;;18.72;46.65;99607.81;5051436;28;20500;-62
2022/06/01 09:40:45;;;;;;;6.60;5.15;;;;;;;18.69;47.06;99614.28;5050875;28;20505;-62
2022/06/01 09:43:24;;;;;;;4.88;4.38;;;;;;;18.60;47.51;99618.66;5051491;28;20119;-62
2022/06/01 09:45:53;;;;;;;5.38;4.45;;;;;;;18.62;47.75;99622.00;5051447;28;20065;-62
2022/06/01 09:48:21;;;;;;;5.20;4.57;;;;;;;18.64;48.15;99618.38;5049739;28;20079;-64
2022/06/01 09:51:13;;;;;;;5.47;4.72;;;;;;;18.65;47.89;99612.06;5050856;28;20056;-62
2022/06/01 09:53:47;;;;;;;4.65;4.22;;;;;;;18.74;47.78;99612.03;5066585;28;20049;-62
2022/06/01 09:56:32;;;;;;;5.43;4.93;;;;;;;18.83;48.00;99597.00;5049901;28;20063;-62
2022/06/01 10:07:31;;;;;;;3.40;3.10;;;;;;;19.40;47.23;99601.41;5050840;28;20492;-61
2022/06/01 10:10:01;;;;;;;3.97;3.38;;;;;;;19.55;46.84;99608.06;5050758;28;20048;-61
2022/06/01 10:12:54;;;;;;;3.72;3.22;;;;;;;19.66;46.16;99606.03;5049179;28;20060;-62
2022/06/01 10:15:40;;;;;;;3.30;3.00;;;;;;;19.80;46.75;99585.13;5050839;28;20045;-62
2022/06/01 10:18:18;;;;;;;4.20;2.55;;;;;;;19.88;46.20;99593.22;5050649;28;20084;-62
2022/06/01 10:20:56;;;;;;;2.20;1.98;;;;;;;19.99;46.56;99594.00;5050584;28;20048;-64
2022/06/01 10:23:49;;;;;;;2.13;1.55;;;;;;;20.09;45.21;99586.78;5050835;28;20519;-62
2022/06/01 10:26:30;;;;;;;3.42;2.38;;;;;;;20.26;45.86;99590.41;5048811;28;20088;-63
2022/06/01 10:29:04;;;;;;;2.70;2.50;;;;;;;20.41;44.58;99582.66;5050484;28;20508;-62
2022/06/01 10:31:38;;;;;;;2.75;2.45;;;;;;;20.57;45.56;99594.47;5049210;28;20044;-62
2022/06/01 10:34:25;;;;;;;2.53;2.33;;;;;;;20.68;43.34;99596.88;5049451;28;20044;-62
2022/06/01 10:37:27;;;;;;;3.17;2.40;;;;;;;20.76;43.81;99596.09;5049169;28;20504;-62
2022/06/01 10:40:06;;;;;;;2.78;2.50;;;;;;;20.85;42.69;99588.94;5050565;28;20107;-62
2022/06/01 10:45:47;;;;;;;3.10;2.80;;;;;;;21.20;44.46;99595.16;5050335;28;20406;-63
2022/06/01 10:48:29;;;;;;;4.78;2.78;;;;;;;21.55;43.36;99597.81;5050535;28;20060;-64
2022/06/01 10:51:15;;;;;;;2.90;2.60;;;;;;;21.84;43.02;99595.72;5065589;28;20061;-63
2022/06/01 10:54:20;;;;;;;2.67;2.45;;;;;;;22.04;42.81;99588.19;5050288;28;20543;-64
2022/06/01 10:56:48;;;;;;;4.40;2.72;;;;;;;22.22;42.14;99592.53;5036992;28;20485;-62
2022/06/01 10:59:16;;;;;;;2.28;2.08;;;;;;;22.23;41.85;99588.84;5065610;28;20061;-63
2022/06/01 11:02:21;;;;;;;2.92;2.47;;;;;;;22.12;41.61;99590.03;5065281;28;20049;-63
2022/06/01 11:05:13;;;;;;;2.53;2.33;;;;;;;22.08;41.28;99599.41;5049143;28;20114;-64
2022/06/01 11:07:55;;;;;;;4.65;2.50;;;;;;;21.93;41.36;99628.69;5050249;28;20056;-63
2022/06/01 11:10:44;;;;;;;2.53;1.25;;;;;;;21.78;39.82;99636.53;5049870;28;20060;-63
2022/06/01 11:13:39;;;;;;;2.65;0.80;;;;;;;21.56;39.83;99628.09;5048965;28;20083;-62
2022/06/01 11:16:12;;;;;;;3.35;0.82;;;;;;;21.33;40.20;99644.75;5050159;28;20057;-62
2022/06/01 11:18:59;;;;;;;5.25;0.70;;;;;;;21.03;40.40;99647.78;5049826;28;20052;-63
2022/06/01 11:21:35;;;;;;;6.07;0.85;;;;;;;20.65;40.89;99648.03;5050022;28;20049;-62
2022/06/01 11:24:07;;;;;;;3.58;0.90;;;;;;;20.37;42.79;99637.44;5048848;28;20053;-61
2022/06/01 11:27:06;;;;;;;0.68;0.50;;;;;;;20.27;45.55;99631.34;5049813;28;20501;-62
2022/06/01 11:30:00;;;;;;;1.08;0.50;;;;;;;20.47;46.73;99628.47;5048717;28;20521;-64
2022/06/01 11:32:42;;;;;;;0.55;0.50;;;;;;;20.91;47.33;99636.53;5049830;28;20057;-62
2022/06/01 11:35:16;;;;;;;0.73;0.50;;;;;;;21.45;47.79;99631.91;5050457;28;20048;-63
2022/06/01 11:38:01;;;;;;;0.93;0.52;;;;;;;22.03;45.98;99616.00;5053087;28;20049;-62
2022/06/01 11:40:54;;;;;;;0.50;0.50;;;;;;;22.69;46.51;99619.69;5052058;28;20136;-62
2022/06/01 11:44:04;;;;;;;0.52;0.40;;;;;;;23.42;45.45;99606.22;5053400;28;20429;-64
2022/06/01 11:46:34;;;;;;;2.30;0.60;;;;;;;24.04;44.26;99614.41;5030830;28;20068;-64
2022/06/01 11:49:13;;;;;;;0.47;0.47;;;;;;;24.59;44.14;99619.69;5030842;28;20082;-62
2022/06/01 11:51:46;;;;;;;0.85;0.80;;;;;;;25.17;42.14;99618.25;5036328;28;20049;-62
2022/06/01 11:54:26;;;;;;;0.60;0.50;;;;;;;25.73;43.01;99627.66;5051932;28;20060;-64
2022/06/01 11:57:16;;;;;;;0.60;0.60;;;;;;;26.27;41.82;99614.72;5052098;28;20068;-63
2022/06/01 11:59:54;;;;;;;1.25;0.70;;;;;;;26.77;39.49;99621.97;5051811;28;20053;-63
2022/06/01 12:02:42;;;;;;;0.60;0.60;;;;;;;27.19;38.40;99616.59;5051751;28;20049;-62
2022/06/01 12:05:39;;;;;;;2.03;0.80;;;;;;;27.58;38.49;99623.19;5053298;28;20522;-64
2022/06/01 12:08:23;;;;;;;1.55;0.82;;;;;;;27.89;37.38;99609.38;5050898;28;20060;-64
2022/06/01 12:11:09;;;;;;;1.08;0.75;;;;;;;28.02;36.34;99609.38;5052630;28;20045;-64
2022/06/01 12:13:35;;;;;;;0.50;0.50;;;;;;;28.10;35.62;99613.75;5053125;28;20053;-65
2022/06/01 12:16:23;;;;;;;1.30;0.95;;;;;;;27.91;35.38;99624.34;5052967;28;20053;-63
2022/06/01 12:18:58;;;;;;;0.95;0.70;;;;;;;27.76;34.04;99612.84;5052666;28;20553;-63
2022/06/01 12:21:24;;;;;;;1.00;0.90;;;;;;;27.55;34.77;99612.78;5052592;28;20544;-63
2022/06/01 12:30:02;;;;;;;0.73;0.55;;;;;;;26.59;32.90;99639.47;5052826;28;20059;-62